Terminal Aerodrome Forecast
Issued by NWS

Home | Current Version | Previous Version | Graphics & Text | Print | Product List | Glossary Off
Versions: 1 2 3 4 5 6 7 8 9 10 11 12 13 14 15 16

000
FTUS43 KBIS 212329
TAFDIK
TAF
KDIK 212329Z 2200/2224 28010KT P6SM FEW200
     FM220400 28010KT P6SM SCT020
     FM220600 28010KT P6SM BKN010
     FM222100 28014KT P6SM SCT015=

USA.gov is the U.S. government's official web portal to all federal, state and local government web resources and services.